Nearby METAR Reports

 

KCOS - Colorado Springs, Colorado, USA
Distance from station: S 6mi, 9km
Updated: 06/21/2018 10:54am
Few Clouds
Few Clouds
 Wind from varies
Wind: varies 6 mph , 9 km/h
Temperature: 72°F , 22°C
Dew Point: 48°F , 9°C
Humidity: 44%
Barometer: 30.22 inHg , 1023.4 hPa
Clouds: Few Clouds
Visibility: 10 miles , 16 km
Cloud details: Few Clouds 22000 ft
2018/06/21 16:54 KCOS 211654Z VRB05KT 10SM FEW220 22/09 A3022 RMK AO2 SLP151 T02220094
KAFF - Usaf Academy/Cos, Colorado, USA
Distance from station: NW 7mi, 12km
Updated: 06/21/2018 10:58am
Clear
Clear
 Wind from S
Wind: S 6 mph , 9 km/h
Temperature: 72°F , 22°C
Dew Point: 45°F , 7°C
Humidity: 38%
Barometer: 30.23 inHg , 1023.7 hPa
Clouds: Clear
Visibility: 10 miles , 16 km
2018/06/21 16:58 KAFF 211658Z AUTO 18005KT 10SM CLR 22/07 A3023 RMK AO2 SLP152 T02180072
 
KFLY - Co Spngs Meadow, Colorado, USA
Distance from station: ENE 8mi, 13km
Updated: 06/21/2018 11:15am
Clear
Clear
 Wind from S
Wind: S 5 mph , 7 km/h
Temperature: 73°F , 23°C
Dew Point: 41°F , 5°C
Humidity: 31%
Barometer: 30.26 inHg , 1024.7 hPa
Clouds: Clear
Visibility: 10 miles , 16 km
2018/06/21 17:15 KFLY 211715Z AUTO 17004KT 10SM CLR 23/05 A3026 RMK AO2 T02330054
KFCS - Fort Carson, Colorado, USA
Distance from station: S 17mi, 27km
Updated: 06/21/2018 10:58am
Clear
Clear
 Wind from SE
Wind: SE 3 mph , 6 km/h
Temperature: 73°F , 23°C
Dew Point: 46°F , 8°C
Humidity: 38%
Barometer: 30.18 inHg , 1022 hPa
Clouds: Clear
Visibility: 10 miles , 16 km
2018/06/21 16:58 KFCS 211658Z AUTO 14003KT 10SM CLR 23/08 A3018 RMK AO2 SLP163 T02340075 $
 
KMNH - Monument/Elbert, Colorado, USA
Distance from station: N 22mi, 35km
Updated: 06/21/2018 11:12am
Clear
Clear
 Wind from NNE
Wind: NNE 6 mph , 9 km/h
Temperature: 72°F , 22°C
Dew Point: 41°F , 5°C
Humidity: 33%
Barometer: 30.27 inHg , 1025.1 hPa
Clouds: Clear
Visibility: 10 miles , 16 km
2018/06/21 17:12 KMNH 211712Z AUTO 03005KT 10SM CLR 22/05 A3027 RMK AO2
K1V6 - Canon City, Colorado, USA
Distance from station: SSW 39mi, 62km
Updated: 05/24/2018 10:10am
NOT Current
Clear
Clear
 Wind from W
Wind: W 12 mph , 19 km/h, Gust: 17 mph , 28 km/h
Temperature: 81°F , 27°C
Dew Point: 27°F , -3°C
Humidity: 14%
Barometer: 30.12 inHg , 1020 hPa
Clouds: Clear
Visibility: 10 miles , 16 km
2018/05/24 16:10 K1V6 241610Z AUTO 27010G15KT 10SM CLR 27/M03 A3012 RMK AO2
 
KPUB - Pueblo, Colorado, USA
Distance from station: SSE 44mi, 71km
Updated: 06/21/2018 10:53am
Clear
Clear
 Wind from ESE
Wind: ESE 5 mph , 7 km/h
Temperature: 77°F , 25°C
Dew Point: 50°F , 10°C
Humidity: 39%
Barometer: 30.11 inHg , 1019.6 hPa
Clouds: Clear
Visibility: 10 miles , 16 km
2018/06/21 16:53 KPUB 211653Z 12004KT 10SM CLR 25/10 A3011 RMK AO2 SLP131 T02500100
KAPA - Denver/Arapahoe, Colorado, USA
Distance from station: N 47mi, 75km
Updated: 06/21/2018 10:53am
Few Clouds
Few Clouds
 Wind from varies
Wind: varies 3 mph , 6 km/h
Temperature: 72°F , 22°C
Dew Point: 50°F , 10°C
Humidity: 47%
Barometer: 30.19 inHg , 1022.4 hPa
Clouds: Few Clouds
Visibility: 10 miles , 16 km
Cloud details: Few Clouds 18000 ft
Few Clouds 22000 ft
2018/06/21 16:53 KAPA 211653Z VRB03KT 10SM FEW180 FEW220 22/10 A3019 RMK AO2 SLP164 T02170100